createdAt,value
2018-07-17T10:25:42.942Z,27.90
2018-07-17T10:28:13.966Z,27.70
2018-07-17T10:30:44.941Z,27.70
2018-07-17T10:33:15.864Z,27.60
2018-07-17T10:35:46.791Z,27.50
2018-07-17T10:38:17.715Z,27.40
2018-07-17T10:40:48.645Z,27.30
2018-07-17T10:43:19.612Z,27.40
2018-07-17T10:45:50.570Z,27.60
2018-07-17T10:48:21.578Z,27.80
2018-07-17T10:50:52.577Z,28.10
2018-07-17T10:55:53.858Z,28.80
2018-07-17T11:03:26.435Z,28.80
2018-07-17T11:05:57.350Z,29.60
2018-07-17T11:37:25.930Z,29.70
2018-07-17T11:39:56.889Z,28.50
2018-07-17T11:42:34.695Z,27.70
2018-07-17T11:45:21.424Z,26.90
2018-07-17T11:48:11.771Z,26.50
2018-07-17T11:53:31.041Z,25.90
2018-07-17T11:56:01.879Z,25.70
2018-07-17T11:58:32.684Z,25.50
2018-07-17T12:01:07.542Z,25.40
2018-07-17T12:03:44.234Z,25.20
2018-07-17T12:06:17.255Z,25.10
2018-07-17T12:11:23.811Z,25.00
2018-07-17T12:13:57.929Z,25.00
2018-07-17T12:16:28.974Z,25.20
2018-07-17T12:18:59.833Z,25.20
2018-07-17T12:21:30.721Z,25.40
2018-07-17T12:24:02.448Z,25.40
2018-07-17T12:26:33.613Z,25.40
2018-07-17T12:29:04.531Z,25.60
2018-07-17T12:31:35.395Z,25.70
2018-07-17T12:34:08.968Z,26.00
2018-07-17T12:36:46.377Z,26.00
2018-07-17T12:40:58.476Z,26.20
2018-07-17T12:43:34.635Z,26.20
2018-07-17T12:46:05.930Z,26.30
2018-07-17T12:48:37.012Z,26.00
2018-07-17T12:51:08.542Z,25.70
2018-07-17T12:53:48.550Z,25.50
2018-07-17T12:56:19.673Z,25.30
2018-07-17T12:58:53.293Z,25.10
2018-07-17T13:01:26.853Z,25.00
2018-07-17T13:03:59.063Z,24.90
2018-07-17T13:09:01.634Z,24.30
2018-07-17T13:11:32.828Z,23.80
2018-07-17T14:19:38.146Z,24.50
2018-07-17T14:22:38.739Z,24.60
2018-07-17T14:25:27.107Z,24.70
2018-07-17T14:28:45.151Z,24.80
